Yongning, China
Current Conditions -  °F | °C
As of 12:00 AM on Wednesday 28 Jan 2015 (Local Time) from ZGNN Reporting Station
Scattered Clouds Scattered Clouds  
Wind Chill: 64°   Ceiling: Unl
Heat Index: 64°   Visibility: 4mi
Dew Point: 61°   Wind: 4mph
Humidity: 88%   Direction: 170°S
Pressure: 29.97"   Gusts: NA
Location:  22.75°N, 108.48°E
Report Text: ZGNN 271600Z 17002MPS 140V220 7000 SCT011 18/16 Q1015 NOSIG
Loading
Personal Weather Stations






























Interactive Weather Map New forecast layout! Learn more

10-Day Weather Forecast

Advertisements
Track Severe Weather on mobile